Time;durP1;ratioP1;P1;durP2;ratioP2;P2;SDS_P1;SDS_P2;PMS_P1;PMS_P2;Temp;Humidity;BMP_temperature;BMP_pressure;BME280_temperature;BME280_humidity;BME280_pressure;Samples;Min_cycle;Max_cycle;Signal;HPM_P1;HPM_P2
2023/10/09 00:02:00;;;;;;;18.05;6.18;;;;;;;;;;4937687;29;20027;-80
2023/10/09 00:04:45;;;;;;;17.52;5.15;;;;;;;;;;4936686;29;20035;-81
2023/10/09 00:07:31;;;;;;;14.05;4.82;;;;;;;;;;4938680;29;20027;-80
2023/10/09 00:10:17;;;;;;;18.67;5.60;;;;;;;;;;4938090;29;20048;-80
2023/10/09 00:13:02;;;;;;;14.52;4.55;;;;;;;;;;4937150;28;20129;-80
2023/10/09 00:15:53;;;;;;;15.05;5.38;;;;;;;;;;4937451;29;20050;-80
2023/10/09 00:18:38;;;;;;;20.67;5.95;;;;;;;;;;4948062;28;20031;-81
2023/10/09 00:21:27;;;;;;;15.48;5.80;;;;;;;;;;4938740;29;20394;-80
2023/10/09 00:24:13;;;;;;;15.45;5.97;;;;;;;;;;4943901;28;20027;-80
2023/10/09 00:27:11;;;;;;;17.88;5.13;;;;;;;;;;4934560;29;20186;-80
2023/10/09 00:29:59;;;;;;;11.45;4.22;;;;;;;;;;4926066;28;20019;-81
2023/10/09 00:33:07;;;;;;;16.30;5.03;;;;;;;;;;4939156;28;20035;-81
2023/10/09 00:35:55;;;;;;;13.25;5.53;;;;;;;;;;4937542;28;20114;-81
2023/10/09 00:38:45;;;;;;;20.85;6.03;;;;;;;;;;4938558;29;20027;-82
2023/10/09 00:41:35;;;;;;;;;;;;;;;;;;4928866;29;20070;-82
2023/10/09 00:44:20;;;;;;;19.75;6.32;;;;;;;;;;4937718;29;20364;-81
2023/10/09 00:47:20;;;;;;;20.30;6.07;;;;;;;;;;4921528;29;20027;-81
2023/10/09 00:53:11;;;;;;;17.50;6.75;;;;;;;;;;4937056;29;20042;-81
2023/10/09 00:55:57;;;;;;;14.48;5.25;;;;;;;;;;4936238;29;20038;-81
2023/10/09 00:58:43;;;;;;;21.30;6.07;;;;;;;;;;4927764;29;20031;-81
2023/10/09 01:01:34;;;;;;;19.65;5.43;;;;;;;;;;4937218;29;20115;-82
2023/10/09 01:04:19;;;;;;;11.52;4.60;;;;;;;;;;4936806;29;20027;-81
2023/10/09 01:07:21;;;;;;;15.48;5.50;;;;;;;;;;4929575;28;20035;-82
2023/10/09 01:10:09;;;;;;;13.45;4.95;;;;;;;;;;4935267;29;20031;-81
2023/10/09 01:12:55;;;;;;;13.75;5.88;;;;;;;;;;4947452;28;20090;-82
2023/10/09 01:15:58;;;;;;;13.98;4.57;;;;;;;;;;4948170;28;20043;-81
2023/10/09 01:18:44;;;;;;;19.45;5.13;;;;;;;;;;4952988;29;20011;-80
2023/10/09 01:21:31;;;;;;;16.27;5.40;;;;;;;;;;4947424;29;20043;-80
2023/10/09 01:24:19;;;;;;;18.52;5.22;;;;;;;;;;4955703;29;20027;-79
2023/10/09 01:27:11;;;;;;;15.25;5.07;;;;;;;;;;4929185;29;20043;-80
2023/10/09 01:30:00;;;;;;;18.00;6.20;;;;;;;;;;4939019;29;20513;-81
2023/10/09 01:32:45;;;;;;;18.80;6.07;;;;;;;;;;4939024;29;20046;-81
2023/10/09 01:35:33;;;;;;;17.10;5.63;;;;;;;;;;4938333;29;20383;-81
2023/10/09 01:38:18;;;;;;;21.30;5.93;;;;;;;;;;4935819;29;20589;-81
2023/10/09 01:41:08;;;;;;;21.23;6.13;;;;;;;;;;4947183;28;20086;-81
2023/10/09 01:44:00;;;;;;;16.95;4.65;;;;;;;;;;4927942;29;20118;-82
2023/10/09 01:46:45;;;;;;;15.52;5.05;;;;;;;;;;4934675;29;20142;-80
2023/10/09 01:49:31;;;;;;;25.05;6.80;;;;;;;;;;4935385;28;20035;-81
2023/10/09 01:52:16;;;;;;;18.42;6.07;;;;;;;;;;4914003;29;20027;-82
2023/10/09 01:55:13;;;;;;;13.27;4.70;;;;;;;;;;4915989;29;20039;-81
2023/10/09 01:58:03;;;;;;;18.55;5.57;;;;;;;;;;4912199;29;20522;-82
2023/10/09 02:00:50;;;;;;;;;;;;;;;;;;4913641;29;20091;-81
2023/10/09 02:03:37;;;;;;;15.60;5.70;;;;;;;;;;4917685;29;20005;-82
2023/10/09 02:06:26;;;;;;;23.75;5.00;;;;;;;;;;4910513;29;20034;-81
2023/10/09 02:09:25;;;;;;;21.88;5.80;;;;;;;;;;4917939;29;20457;-81
2023/10/09 02:12:11;;;;;;;16.15;5.80;;;;;;;;;;4906343;29;20049;-81
2023/10/09 02:14:56;;;;;;;12.82;5.13;;;;;;;;;;4916372;29;20042;-81
2023/10/09 02:17:52;;;;;;;15.55;5.72;;;;;;;;;;4920708;29;20441;-81
2023/10/09 02:20:37;;;;;;;17.00;5.05;;;;;;;;;;4925468;29;21951;-81
2023/10/09 02:23:30;;;;;;;18.88;5.50;;;;;;;;;;4920673;29;20524;-81
2023/10/09 02:26:26;;;;;;;17.15;5.90;;;;;;;;;;4932118;29;20042;-82
2023/10/09 02:32:13;;;;;;;17.25;6.82;;;;;;;;;;4915311;29;20032;-81
2023/10/09 02:35:08;;;;;;;18.63;5.30;;;;;;;;;;4940098;29;20362;-81
2023/10/09 02:37:54;;;;;;;17.27;5.28;;;;;;;;;;4920377;29;20028;-81
2023/10/09 02:40:53;;;;;;;19.92;6.05;;;;;;;;;;4919510;29;20065;-81
2023/10/09 02:43:44;;;;;;;19.93;6.37;;;;;;;;;;4914872;29;20398;-80
2023/10/09 02:46:30;;;;;;;20.40;5.80;;;;;;;;;;4915172;29;20031;-81
2023/10/09 02:49:15;;;;;;;14.32;4.75;;;;;;;;;;4914862;29;20058;-80
2023/10/09 02:52:06;;;;;;;20.00;6.07;;;;;;;;;;4935819;29;20482;-81
2023/10/09 02:55:12;;;;;;;19.65;5.65;;;;;;;;;;4929279;29;20166;-81
2023/10/09 02:58:10;;;;;;;21.33;5.28;;;;;;;;;;4933786;29;20537;-81
2023/10/09 03:00:55;;;;;;;20.05;6.55;;;;;;;;;;4933157;29;20062;-82
2023/10/09 03:03:46;;;;;;;21.15;5.53;;;;;;;;;;4937195;29;20058;-82
2023/10/09 03:06:33;;;;;;;23.08;5.82;;;;;;;;;;4943306;29;20477;-81
2023/10/09 03:09:26;;;;;;;18.77;5.20;;;;;;;;;;4932508;29;20034;-80
2023/10/09 03:12:13;;;;;;;20.95;5.50;;;;;;;;;;4933456;29;20063;-82
2023/10/09 03:14:58;;;;;;;22.73;5.97;;;;;;;;;;4933567;29;20043;-82
2023/10/09 03:17:44;;;;;;;17.77;5.07;;;;;;;;;;4931201;29;20039;-82
2023/10/09 03:20:30;;;;;;;20.63;6.72;;;;;;;;;;4932917;29;20023;-81
2023/10/09 03:23:15;;;;;;;20.35;5.25;;;;;;;;;;4926368;29;20055;-82
2023/10/09 03:26:01;;;;;;;22.23;5.53;;;;;;;;;;4929902;29;20142;-81
2023/10/09 03:28:49;;;;;;;23.67;7.10;;;;;;;;;;4929090;29;20019;-81
2023/10/09 03:31:36;;;;;;;19.17;5.95;;;;;;;;;;4928544;29;20115;-82
2023/10/09 03:34:21;;;;;;;19.60;6.05;;;;;;;;;;4924282;29;20535;-81
2023/10/09 03:37:21;;;;;;;18.55;5.50;;;;;;;;;;4929719;29;20372;-82
2023/10/09 03:40:07;;;;;;;23.35;5.85;;;;;;;;;;4928622;29;20382;-81
2023/10/09 03:42:53;;;;;;;18.60;6.20;;;;;;;;;;4930793;29;20410;-81
2023/10/09 03:45:45;;;;;;;18.13;5.57;;;;;;;;;;4932015;29;20502;-81
2023/10/09 03:48:35;;;;;;;17.52;5.93;;;;;;;;;;4928456;29;20055;-81
2023/10/09 03:51:21;;;;;;;17.02;6.10;;;;;;;;;;4932475;29;20501;-81
2023/10/09 03:54:07;;;;;;;19.75;4.53;;;;;;;;;;4930824;29;20040;-80
2023/10/09 03:56:54;;;;;;;16.13;5.20;;;;;;;;;;4931232;29;20757;-82
2023/10/09 03:59:42;;;;;;;15.27;4.80;;;;;;;;;;4934889;29;20031;-81
2023/10/09 04:02:27;;;;;;;21.92;6.47;;;;;;;;;;4925734;29;20437;-81
2023/10/09 04:05:12;;;;;;;16.38;5.13;;;;;;;;;;4932563;29;20417;-81
2023/10/09 04:08:11;;;;;;;24.48;5.47;;;;;;;;;;4932645;29;20035;-81
2023/10/09 04:11:04;;;;;;;18.00;4.78;;;;;;;;;;4929148;29;20090;-81
2023/10/09 04:13:49;;;;;;;21.15;5.57;;;;;;;;;;4925197;29;20050;-81
2023/10/09 04:16:47;;;;;;;19.67;5.53;;;;;;;;;;4927768;29;20043;-82
2023/10/09 04:19:47;;;;;;;19.38;5.03;;;;;;;;;;4941712;28;20518;-82
2023/10/09 04:22:38;;;;;;;18.60;6.15;;;;;;;;;;4928048;29;20052;-82
2023/10/09 04:25:29;;;;;;;22.67;5.57;;;;;;;;;;4928672;29;20059;-80
2023/10/09 04:28:22;;;;;;;16.30;5.60;;;;;;;;;;4918927;29;20102;-81
2023/10/09 04:31:07;;;;;;;25.02;6.53;;;;;;;;;;4925500;29;20054;-81
2023/10/09 04:33:57;;;;;;;18.90;4.85;;;;;;;;;;4924023;29;20028;-80
2023/10/09 04:36:46;;;;;;;22.50;8.10;;;;;;;;;;4930190;29;20062;-78
2023/10/09 04:48:06;;;;;;;19.27;4.97;;;;;;;;;;4930572;29;20122;-82
2023/10/09 04:54:14;;;;;;;17.40;6.25;;;;;;;;;;4914325;29;20117;-82
2023/10/09 04:56:59;;;;;;;19.20;5.97;;;;;;;;;;4913189;29;20080;-82
2023/10/09 04:59:48;;;;;;;21.83;5.55;;;;;;;;;;4916332;29;20031;-83
2023/10/09 05:02:37;;;;;;;22.45;6.53;;;;;;;;;;4911694;29;20040;-81
2023/10/09 05:14:17;;;;;;;13.63;5.15;;;;;;;;;;4915565;29;20024;-82
2023/10/09 05:17:04;;;;;;;19.88;5.97;;;;;;;;;;4918163;29;20613;-81
2023/10/09 05:20:00;;;;;;;17.90;5.50;;;;;;;;;;4914707;29;20027;-86
2023/10/09 05:22:56;;;;;;;19.80;4.78;;;;;;;;;;4916977;29;20039;-86
2023/10/09 05:25:53;;;;;;;26.13;6.07;;;;;;;;;;4924709;29;20486;-85
2023/10/09 05:28:52;;;;;;;29.52;7.40;;;;;;;;;;4919324;29;20036;-83
2023/10/09 05:37:45;;;;;;;15.05;6.10;;;;;;;;;;4917596;29;20479;-86
2023/10/09 05:40:31;;;;;;;23.15;5.55;;;;;;;;;;4917687;29;20042;-87
2023/10/09 05:44:55;;;;;;;14.13;5.13;;;;;;;;;;4901742;29;20024;-85
2023/10/09 05:46:35;;;;;;;14.20;5.30;;;;;;;;;;4916787;29;20616;-86
2023/10/09 05:49:24;;;;;;;18.15;5.70;;;;;;;;;;4915042;29;20052;-86
2023/10/09 06:08:04;;;;;;;15.95;5.32;;;;;;;;;;4934033;29;20043;-86
2023/10/09 06:10:48;;;;;;;18.98;5.13;;;;;;;;;;4938107;28;20872;-85
2023/10/09 06:13:46;;;;;;;17.13;6.15;;;;;;;;;;4933604;29;20052;-86
2023/10/09 06:16:41;;;;;;;20.10;5.50;;;;;;;;;;4934714;29;20027;-85
2023/10/09 06:19:27;;;;;;;23.25;6.45;;;;;;;;;;4939060;29;20122;-85
2023/10/09 06:24:59;;;;;;;20.30;5.78;;;;;;;;;;4931712;29;20031;-86
2023/10/09 06:27:57;;;;;;;16.65;5.70;;;;;;;;;;4933134;29;20035;-85
2023/10/09 06:30:46;;;;;;;16.08;5.05;;;;;;;;;;4943090;29;20090;-85
2023/10/09 06:33:57;;;;;;;23.00;7.18;;;;;;;;;;4941124;29;20197;-86
2023/10/09 06:36:52;;;;;;;17.20;5.30;;;;;;;;;;4922557;29;20057;-86
2023/10/09 06:39:50;;;;;;;23.92;5.00;;;;;;;;;;4934864;29;20067;-84
2023/10/09 06:45:32;;;;;;;19.77;5.40;;;;;;;;;;4927734;29;20063;-86
2023/10/09 06:54:14;;;;;;;16.63;5.75;;;;;;;;;;4941621;29;20031;-85
2023/10/09 06:57:18;;;;;;;;;;;;;;;;;;4922699;29;20384;-85
2023/10/09 07:03:19;;;;;;;13.98;5.53;;;;;;;;;;4933313;29;20015;-86
2023/10/09 07:06:09;;;;;;;16.58;6.70;;;;;;;;;;4932499;29;20410;-86
2023/10/09 07:20:36;;;;;;;19.33;5.72;;;;;;;;;;4933165;29;20119;-86
2023/10/09 07:23:22;;;;;;;16.92;5.95;;;;;;;;;;4926374;29;20095;-87
2023/10/09 07:26:18;;;;;;;16.40;5.22;;;;;;;;;;4931451;29;20026;-86
2023/10/09 07:29:16;;;;;;;21.02;5.00;;;;;;;;;;4934119;29;20054;-86
2023/10/09 07:32:12;;;;;;;20.13;6.22;;;;;;;;;;4913669;29;20031;-86
2023/10/09 07:34:58;;;;;;;17.10;5.53;;;;;;;;;;4932234;29;20046;-86
2023/10/09 07:37:50;;;;;;;16.42;4.47;;;;;;;;;;4933577;29;20111;-86
2023/10/09 07:40:54;;;;;;;18.27;5.60;;;;;;;;;;4933671;29;20558;-86
2023/10/09 07:43:45;;;;;;;25.25;6.60;;;;;;;;;;4934770;29;20024;-87
2023/10/09 07:46:32;;;;;;;17.77;5.03;;;;;;;;;;4931412;29;20181;-86
2023/10/09 07:49:27;;;;;;;16.60;5.32;;;;;;;;;;4924170;29;20036;-86
2023/10/09 07:52:13;;;;;;;17.05;5.13;;;;;;;;;;4915616;29;20498;-87
2023/10/09 07:55:06;;;;;;;16.75;4.70;;;;;;;;;;4921116;29;20032;-87
2023/10/09 07:57:54;;;;;;;17.27;5.05;;;;;;;;;;4919343;29;20054;-84
2023/10/09 08:03:46;;;;;;;20.73;5.75;;;;;;;;;;4921544;29;20024;-85
2023/10/09 08:06:38;;;;;;;21.92;6.03;;;;;;;;;;4918294;29;20402;-85
2023/10/09 08:09:46;;;;;;;13.65;4.80;;;;;;;;;;4917913;29;20047;-85
2023/10/09 08:18:14;;;;;;;19.27;5.15;;;;;;;;;;4919105;29;20109;-85
2023/10/09 08:23:50;;;;;;;23.45;6.78;;;;;;;;;;4932788;29;20039;-86
2023/10/09 08:26:47;;;;;;;13.73;4.75;;;;;;;;;;4920279;29;20042;-86
2023/10/09 08:29:34;;;;;;;15.52;5.05;;;;;;;;;;4923828;29;20019;-86
2023/10/09 08:32:38;;;;;;;17.38;5.47;;;;;;;;;;4918453;29;20039;-86
2023/10/09 08:35:29;;;;;;;14.00;5.07;;;;;;;;;;4917460;29;20023;-86
2023/10/09 08:38:17;;;;;;;16.00;4.43;;;;;;;;;;4911649;29;20015;-85
2023/10/09 08:41:18;;;;;;;17.52;5.45;;;;;;;;;;4919857;29;20102;-86
2023/10/09 08:44:04;;;;;;;18.38;5.25;;;;;;;;;;4917947;29;20181;-86
2023/10/09 08:46:50;;;;;;;13.75;5.22;;;;;;;;;;4911504;29;20031;-86
2023/10/09 08:49:35;;;;;;;23.25;6.30;;;;;;;;;;4921324;29;20047;-85
2023/10/09 08:52:21;;;;;;;16.55;4.85;;;;;;;;;;4934862;29;20039;-86
2023/10/09 08:55:08;;;;;;;23.75;7.20;;;;;;;;;;4934007;29;20039;-86
2023/10/09 08:57:58;;;;;;;19.83;5.05;;;;;;;;;;4934504;29;20039;-85
2023/10/09 09:00:45;;;;;;;18.83;6.47;;;;;;;;;;4938745;29;20102;-87
2023/10/09 09:03:38;;;;;;;18.48;4.85;;;;;;;;;;4938478;29;20042;-88
2023/10/09 09:06:23;;;;;;;14.48;4.45;;;;;;;;;;4934354;29;20083;-86
2023/10/09 09:09:15;;;;;;;23.25;5.38;;;;;;;;;;4938510;29;20106;-87
2023/10/09 09:12:01;;;;;;;15.55;4.30;;;;;;;;;;4936849;29;20039;-86
2023/10/09 09:14:46;;;;;;;18.88;5.82;;;;;;;;;;4906264;29;20035;-86
2023/10/09 09:17:35;;;;;;;20.45;5.22;;;;;;;;;;4922386;29;20031;-86
2023/10/09 09:20:25;;;;;;;;;;;;;;;;;;4920985;29;20023;-86
2023/10/09 09:23:12;;;;;;;14.23;6.15;;;;;;;;;;4909634;29;20433;-87
2023/10/09 09:26:10;;;;;;;14.80;5.47;;;;;;;;;;4920921;29;20422;-86
2023/10/09 09:28:55;;;;;;;16.45;4.75;;;;;;;;;;4922087;29;20024;-87
2023/10/09 09:31:53;;;;;;;15.13;4.45;;;;;;;;;;4911702;29;20027;-86
2023/10/09 09:34:55;;;;;;;16.27;5.10;;;;;;;;;;4913974;29;20070;-86
2023/10/09 09:43:21;;;;;;;15.57;5.05;;;;;;;;;;4910157;29;20086;-86
2023/10/09 09:46:08;;;;;;;13.23;5.40;;;;;;;;;;4918571;29;20059;-87
2023/10/09 09:49:00;;;;;;;13.68;4.43;;;;;;;;;;4927940;29;20533;-87
2023/10/09 09:51:46;;;;;;;22.15;4.72;;;;;;;;;;4930912;29;20036;-87
2023/10/09 09:54:36;;;;;;;18.27;6.25;;;;;;;;;;4943810;29;20094;-86
2023/10/09 09:57:25;;;;;;;16.17;5.47;;;;;;;;;;4935581;29;20552;-86
2023/10/09 10:00:27;;;;;;;15.02;4.47;;;;;;;;;;4934410;29;20118;-86
2023/10/09 10:03:14;;;;;;;14.27;6.25;;;;;;;;;;4935465;29;20111;-85
2023/10/09 10:06:04;;;;;;;14.07;4.53;;;;;;;;;;4934595;29;20047;-86
2023/10/09 10:08:53;;;;;;;17.08;5.75;;;;;;;;;;4939044;29;20023;-86
2023/10/09 10:11:42;;;;;;;18.05;5.60;;;;;;;;;;4934665;29;20371;-86
2023/10/09 10:14:31;;;;;;;;;;;;;;;;;;4934636;29;20020;-86
2023/10/09 10:17:16;;;;;;;20.50;6.10;;;;;;;;;;4932497;29;19907;-85
2023/10/09 10:23:17;;;;;;;17.92;5.78;;;;;;;;;;4937048;29;20043;-88
2023/10/09 10:26:27;;;;;;;20.02;5.20;;;;;;;;;;4935680;29;20092;-86
2023/10/09 10:29:23;;;;;;;16.33;4.82;;;;;;;;;;4935537;29;20030;-85
2023/10/09 10:32:08;;;;;;;18.08;5.28;;;;;;;;;;4928871;29;20031;-86
2023/10/09 10:34:56;;;;;;;16.60;6.25;;;;;;;;;;4935033;29;20031;-86
2023/10/09 10:37:50;;;;;;;18.80;5.97;;;;;;;;;;4933634;29;20031;-86
2023/10/09 10:40:38;;;;;;;19.63;5.35;;;;;;;;;;4927609;29;20094;-85
2023/10/09 10:43:47;;;;;;;17.67;4.90;;;;;;;;;;4922647;29;20747;-87
2023/10/09 10:46:40;;;;;;;20.85;6.03;;;;;;;;;;4931839;29;20032;-87
2023/10/09 10:49:36;;;;;;;27.17;5.72;;;;;;;;;;4931848;29;20447;-86
2023/10/09 10:52:44;;;;;;;19.83;4.82;;;;;;;;;;4920282;29;20028;-87
2023/10/09 10:58:23;;;;;;;25.85;6.05;;;;;;;;;;4932892;29;20038;-86
2023/10/09 11:01:15;;;;;;;17.15;5.32;;;;;;;;;;4934685;29;20032;-87
2023/10/09 11:04:12;;;;;;;19.15;4.85;;;;;;;;;;4933683;29;20367;-87
2023/10/09 11:07:06;;;;;;;21.17;5.82;;;;;;;;;;4928037;29;20127;-87
2023/10/09 11:15:44;;;;;;;18.70;4.28;;;;;;;;;;4932757;29;20024;-87
2023/10/09 11:18:30;;;;;;;20.80;5.38;;;;;;;;;;4934872;29;20028;-86
2023/10/09 11:24:24;;;;;;;13.63;6.20;;;;;;;;;;4937918;29;20479;-87
2023/10/09 11:27:06;;;;;;;14.45;4.15;;;;;;;;;;4931706;29;20032;-86
2023/10/09 11:32:38;;;;;;;18.98;5.50;;;;;;;;;;4935059;29;20023;-87
2023/10/09 11:35:34;;;;;;;16.15;4.47;;;;;;;;;;4932261;29;20120;-86
2023/10/09 11:38:23;;;;;;;15.32;4.90;;;;;;;;;;4933454;29;20027;-85
2023/10/09 11:41:18;;;;;;;15.63;4.53;;;;;;;;;;4935713;28;20027;-87
2023/10/09 11:44:04;;;;;;;13.43;4.85;;;;;;;;;;4934199;29;20039;-88
2023/10/09 11:46:58;;;;;;;15.35;4.32;;;;;;;;;;4939350;29;20028;-88
2023/10/09 11:49:47;;;;;;;16.05;4.47;;;;;;;;;;4921147;29;20482;-87
2023/10/09 11:52:37;;;;;;;11.93;4.07;;;;;;;;;;4917914;29;20048;-86
2023/10/09 11:55:25;;;;;;;19.90;4.88;;;;;;;;;;4937022;29;20028;-85
2023/10/09 11:58:10;;;;;;;13.32;4.60;;;;;;;;;;4933367;29;20078;-85
2023/10/09 12:01:03;;;;;;;24.58;7.25;;;;;;;;;;4928619;29;20058;-87
2023/10/09 12:03:49;;;;;;;24.58;5.10;;;;;;;;;;4922580;29;20070;-87
2023/10/09 12:06:35;;;;;;;16.13;4.50;;;;;;;;;;4933000;29;20055;-87
2023/10/09 12:09:24;;;;;;;19.90;5.28;;;;;;;;;;4939467;29;20165;-85
2023/10/09 12:12:09;;;;;;;20.90;4.07;;;;;;;;;;4936281;29;20032;-86
2023/10/09 12:14:54;;;;;;;12.90;5.05;;;;;;;;;;4931865;29;20043;-86
2023/10/09 12:17:44;;;;;;;14.38;5.10;;;;;;;;;;4905715;29;20034;-86
2023/10/09 12:20:33;;;;;;;13.80;4.32;;;;;;;;;;4937257;29;20033;-87
2023/10/09 12:23:19;;;;;;;16.77;5.22;;;;;;;;;;4930234;29;20039;-87
2023/10/09 12:26:04;;;;;;;15.35;5.40;;;;;;;;;;4955955;29;20066;-87
2023/10/09 12:28:50;;;;;;;15.23;5.05;;;;;;;;;;4952121;29;20042;-86
2023/10/09 12:31:35;;;;;;;14.68;5.10;;;;;;;;;;4932217;29;20031;-87
2023/10/09 12:34:22;;;;;;;13.05;4.10;;;;;;;;;;4939764;29;20023;-86
2023/10/09 12:37:07;;;;;;;10.52;4.82;;;;;;;;;;4934681;29;20094;-87
2023/10/09 12:39:56;;;;;;;18.77;5.47;;;;;;;;;;4935029;29;20083;-87
2023/10/09 12:42:41;;;;;;;14.23;5.38;;;;;;;;;;4934384;29;20023;-87
2023/10/09 12:45:32;;;;;;;15.98;5.63;;;;;;;;;;4935291;29;20106;-86
2023/10/09 12:48:17;;;;;;;12.18;4.75;;;;;;;;;;4939261;29;20081;-86
2023/10/09 12:51:06;;;;;;;13.48;5.00;;;;;;;;;;4932392;29;20047;-87
2023/10/09 12:53:56;;;;;;;14.77;5.82;;;;;;;;;;4935940;29;20445;-86
2023/10/09 12:56:42;;;;;;;15.95;5.55;;;;;;;;;;4928058;29;20038;-84
2023/10/09 12:59:31;;;;;;;12.90;4.90;;;;;;;;;;4938660;28;20780;-84
2023/10/09 13:02:28;;;;;;;12.88;6.28;;;;;;;;;;4929520;29;20097;-84
2023/10/09 13:05:25;;;;;;;11.35;4.32;;;;;;;;;;4923330;29;20042;-86
2023/10/09 13:08:11;;;;;;;14.57;6.10;;;;;;;;;;4933275;29;20127;-85
2023/10/09 13:11:00;;;;;;;10.25;4.80;;;;;;;;;;4920893;29;20036;-86
2023/10/09 13:13:51;;;;;;;13.05;5.90;;;;;;;;;;4936664;29;20035;-85
2023/10/09 13:16:37;;;;;;;13.38;6.22;;;;;;;;;;4919583;29;20039;-85
2023/10/09 13:19:24;;;;;;;12.77;7.15;;;;;;;;;;4922347;29;20023;-86
2023/10/09 13:22:12;;;;;;;16.48;6.22;;;;;;;;;;4932838;29;20087;-87
2023/10/09 13:25:04;;;;;;;16.90;6.40;;;;;;;;;;4922367;29;20390;-87
2023/10/09 13:27:52;;;;;;;14.60;7.15;;;;;;;;;;4936336;29;20070;-87
2023/10/09 13:30:39;;;;;;;17.67;8.23;;;;;;;;;;4927782;29;20023;-88
2023/10/09 13:33:27;;;;;;;15.43;7.50;;;;;;;;;;4921355;29;20035;-86
2023/10/09 13:36:27;;;;;;;22.38;8.73;;;;;;;;;;4932828;29;20039;-85
2023/10/09 13:39:25;;;;;;;15.40;7.68;;;;;;;;;;4920657;29;20046;-86
2023/10/09 13:42:11;;;;;;;14.25;7.30;;;;;;;;;;4922804;29;20063;-85
2023/10/09 13:44:56;;;;;;;16.02;7.75;;;;;;;;;;4922459;29;20023;-87
2023/10/09 13:47:44;;;;;;;13.35;6.40;;;;;;;;;;4919225;29;20044;-87
2023/10/09 13:50:32;;;;;;;12.93;6.70;;;;;;;;;;4917944;29;20035;-86
2023/10/09 13:53:18;;;;;;;14.30;6.47;;;;;;;;;;4916689;29;20095;-87
2023/10/09 13:56:06;;;;;;;14.60;6.93;;;;;;;;;;4915449;29;20128;-85
2023/10/09 13:58:53;;;;;;;13.10;7.23;;;;;;;;;;4913859;29;20043;-87
2023/10/09 14:01:39;;;;;;;13.35;5.63;;;;;;;;;;4915619;29;20071;-86
2023/10/09 14:04:26;;;;;;;13.07;5.80;;;;;;;;;;4917348;29;20031;-85
2023/10/09 14:07:16;;;;;;;11.65;6.07;;;;;;;;;;4917885;29;20026;-85
2023/10/09 14:10:17;;;;;;;11.98;5.10;;;;;;;;;;4916975;29;20506;-83
2023/10/09 14:13:11;;;;;;;13.93;6.47;;;;;;;;;;4917463;29;20430;-84
2023/10/09 14:15:59;;;;;;;13.82;5.95;;;;;;;;;;4921069;29;20321;-84
2023/10/09 14:18:44;;;;;;;13.30;6.00;;;;;;;;;;4917244;29;20061;-86
2023/10/09 14:21:30;;;;;;;14.73;7.20;;;;;;;;;;4920848;29;20034;-85
2023/10/09 14:24:15;;;;;;;12.73;7.10;;;;;;;;;;4923648;29;20028;-83
2023/10/09 14:27:04;;;;;;;11.45;6.10;;;;;;;;;;4927900;29;20035;-86
2023/10/09 14:29:49;;;;;;;13.18;5.60;;;;;;;;;;4911256;29;20110;-87
2023/10/09 14:32:43;;;;;;;11.13;5.85;;;;;;;;;;4923902;29;20032;-84
2023/10/09 14:35:32;;;;;;;13.68;7.13;;;;;;;;;;4928894;29;20087;-87
2023/10/09 14:38:26;;;;;;;11.13;5.80;;;;;;;;;;4918267;29;20031;-87
2023/10/09 14:41:12;;;;;;;11.75;5.93;;;;;;;;;;4933946;29;20102;-86
2023/10/09 14:43:58;;;;;;;14.77;6.35;;;;;;;;;;4921047;29;20099;-85
2023/10/09 14:46:44;;;;;;;13.23;6.88;;;;;;;;;;4920412;29;20031;-85
2023/10/09 14:49:34;;;;;;;12.23;7.35;;;;;;;;;;4928861;29;20664;-86
2023/10/09 14:52:21;;;;;;;14.13;6.57;;;;;;;;;;4933505;29;20032;-85
2023/10/09 14:55:06;;;;;;;19.17;7.53;;;;;;;;;;4925505;29;20030;-83
2023/10/09 14:57:52;;;;;;;16.73;8.13;;;;;;;;;;4943992;29;20153;-84
2023/10/09 15:00:45;;;;;;;14.77;7.07;;;;;;;;;;4934357;29;20100;-85
2023/10/09 15:03:37;;;;;;;17.23;8.52;;;;;;;;;;4933567;29;20114;-85
2023/10/09 15:06:23;;;;;;;15.82;6.80;;;;;;;;;;4933838;29;20038;-85
2023/10/09 15:09:09;;;;;;;16.58;7.20;;;;;;;;;;4934005;29;20102;-85
2023/10/09 15:11:54;;;;;;;14.55;6.28;;;;;;;;;;4922819;29;20110;-87
2023/10/09 15:14:40;;;;;;;14.60;6.35;;;;;;;;;;4946014;29;20023;-88
2023/10/09 15:17:25;;;;;;;18.95;8.27;;;;;;;;;;4933487;29;20223;-87
2023/10/09 15:20:13;;;;;;;16.00;7.72;;;;;;;;;;4930413;29;20030;-88
2023/10/09 15:22:58;;;;;;;12.88;6.75;;;;;;;;;;4933691;29;20070;-87
2023/10/09 15:25:45;;;;;;;13.73;6.45;;;;;;;;;;4936536;29;20502;-87
2023/10/09 15:28:32;;;;;;;16.38;6.88;;;;;;;;;;4927660;29;20119;-87
2023/10/09 15:31:18;;;;;;;12.73;7.13;;;;;;;;;;4951422;29;20083;-87
2023/10/09 15:34:08;;;;;;;16.38;6.90;;;;;;;;;;4947906;29;20082;-88
2023/10/09 15:36:53;;;;;;;16.48;8.40;;;;;;;;;;4936808;29;20035;-87
2023/10/09 15:39:38;;;;;;;16.85;8.98;;;;;;;;;;4934442;29;20061;-87
2023/10/09 15:42:27;;;;;;;15.60;7.78;;;;;;;;;;4937640;29;20028;-88
2023/10/09 15:45:13;;;;;;;15.68;6.55;;;;;;;;;;4937718;29;20051;-87
2023/10/09 15:48:04;;;;;;;13.73;7.22;;;;;;;;;;4933633;29;20106;-88
2023/10/09 15:50:51;;;;;;;17.20;7.70;;;;;;;;;;4921219;29;20031;-88
2023/10/09 15:53:36;;;;;;;12.07;6.43;;;;;;;;;;4922052;29;20095;-88
2023/10/09 15:56:21;;;;;;;14.07;6.05;;;;;;;;;;4918637;29;20162;-89
2023/10/09 15:59:07;;;;;;;12.43;7.07;;;;;;;;;;4906443;29;20044;-88
2023/10/09 16:01:53;;;;;;;14.73;6.95;;;;;;;;;;4922861;29;20044;-88
2023/10/09 16:04:39;;;;;;;16.27;6.05;;;;;;;;;;4923329;29;20063;-88
2023/10/09 16:07:26;;;;;;;14.93;7.15;;;;;;;;;;4921822;29;20024;-88
2023/10/09 16:10:15;;;;;;;12.63;7.18;;;;;;;;;;4922717;29;20027;-87
2023/10/09 16:13:01;;;;;;;15.50;7.50;;;;;;;;;;4925154;29;20367;-89
2023/10/09 16:15:46;;;;;;;13.73;6.88;;;;;;;;;;4934868;29;20015;-88
2023/10/09 16:18:34;;;;;;;24.63;8.82;;;;;;;;;;4931373;29;20061;-88
2023/10/09 16:21:19;;;;;;;15.50;6.82;;;;;;;;;;4914185;29;20030;-88
2023/10/09 16:24:06;;;;;;;20.17;7.50;;;;;;;;;;4922063;29;20031;-88
2023/10/09 16:26:55;;;;;;;13.90;7.22;;;;;;;;;;4929313;29;20023;-90
2023/10/09 16:29:44;;;;;;;16.33;7.75;;;;;;;;;;4933947;29;20059;-86
2023/10/09 16:32:33;;;;;;;15.75;6.40;;;;;;;;;;4959634;29;20027;-88
2023/10/09 16:35:22;;;;;;;13.75;7.18;;;;;;;;;;4941959;29;20051;-88
2023/10/09 16:38:12;;;;;;;15.10;6.80;;;;;;;;;;4932739;29;20020;-87
2023/10/09 16:41:10;;;;;;;15.88;6.25;;;;;;;;;;4938985;29;20289;-88
2023/10/09 16:43:59;;;;;;;16.95;6.90;;;;;;;;;;4918692;29;20028;-86
2023/10/09 16:46:47;;;;;;;11.40;6.25;;;;;;;;;;4925378;29;20027;-86
2023/10/09 16:49:32;;;;;;;13.05;7.28;;;;;;;;;;4919252;29;20108;-88
2023/10/09 16:52:18;;;;;;;14.35;7.40;;;;;;;;;;4930579;29;20028;-87
2023/10/09 16:55:08;;;;;;;11.27;6.20;;;;;;;;;;4919598;29;20083;-88
2023/10/09 16:57:55;;;;;;;15.25;7.47;;;;;;;;;;4937662;29;20506;-87
2023/10/09 17:00:41;;;;;;;12.38;6.20;;;;;;;;;;4939413;29;20019;-88
2023/10/09 17:03:27;;;;;;;16.25;7.85;;;;;;;;;;4937111;29;20157;-87
2023/10/09 17:06:18;;;;;;;15.63;6.80;;;;;;;;;;4942394;29;20441;-86
2023/10/09 17:09:06;;;;;;;15.68;6.88;;;;;;;;;;4932499;29;20038;-88
2023/10/09 17:11:53;;;;;;;18.58;6.50;;;;;;;;;;4940146;29;20020;-88
2023/10/09 17:14:39;;;;;;;16.38;6.85;;;;;;;;;;4939087;29;20036;-86
2023/10/09 17:17:27;;;;;;;22.42;8.45;;;;;;;;;;4934502;29;20031;-88
2023/10/09 17:20:13;;;;;;;20.05;8.88;;;;;;;;;;4937566;29;20067;-87
2023/10/09 17:22:59;;;;;;;13.43;6.03;;;;;;;;;;4935656;29;20023;-88
2023/10/09 17:25:45;;;;;;;18.15;7.40;;;;;;;;;;4942521;29;20036;-89
2023/10/09 17:28:30;;;;;;;19.33;7.88;;;;;;;;;;4952969;29;20039;-88
2023/10/09 17:31:20;;;;;;;17.75;6.80;;;;;;;;;;4939234;29;20063;-85
2023/10/09 17:34:07;;;;;;;;;;;;;;;;;;4936770;29;20043;-86
2023/10/09 17:36:52;;;;;;;19.15;6.88;;;;;;;;;;4937278;29;21283;-88
2023/10/09 17:39:38;;;;;;;14.02;5.68;;;;;;;;;;4928836;29;20039;-88
2023/10/09 17:42:24;;;;;;;16.77;7.03;;;;;;;;;;4933643;29;20059;-88
2023/10/09 17:45:09;;;;;;;17.23;5.80;;;;;;;;;;4937263;29;20535;-89
2023/10/09 17:47:55;;;;;;;18.02;6.10;;;;;;;;;;4936570;29;20123;-87
2023/10/09 17:50:44;;;;;;;17.10;6.63;;;;;;;;;;4922772;29;20117;-87
2023/10/09 17:53:29;;;;;;;14.07;6.75;;;;;;;;;;4921872;29;20058;-89
2023/10/09 17:56:18;;;;;;;19.85;8.15;;;;;;;;;;4921115;29;20138;-89
2023/10/09 17:59:03;;;;;;;18.42;8.73;;;;;;;;;;4930444;29;20043;-88
2023/10/09 18:01:48;;;;;;;17.73;8.20;;;;;;;;;;4918366;29;20119;-86
2023/10/09 18:04:37;;;;;;;20.38;7.53;;;;;;;;;;4925108;29;20063;-89
2023/10/09 18:07:23;;;;;;;18.60;7.63;;;;;;;;;;4917932;29;20019;-87
2023/10/09 18:10:09;;;;;;;19.80;6.32;;;;;;;;;;4920744;29;20040;-85
2023/10/09 18:12:54;;;;;;;17.92;6.72;;;;;;;;;;4915744;29;20162;-88
2023/10/09 18:15:41;;;;;;;19.08;7.80;;;;;;;;;;4920936;29;20032;-85
2023/10/09 18:18:27;;;;;;;16.00;7.32;;;;;;;;;;4921905;29;20031;-83
2023/10/09 18:21:12;;;;;;;17.95;6.65;;;;;;;;;;4924864;29;20433;-83
2023/10/09 18:24:05;;;;;;;17.52;7.30;;;;;;;;;;4920615;29;20115;-83
2023/10/09 18:26:51;;;;;;;16.35;6.15;;;;;;;;;;4921704;29;20080;-85
2023/10/09 18:29:37;;;;;;;16.80;6.72;;;;;;;;;;4909905;29;20039;-87
2023/10/09 18:32:23;;;;;;;13.25;6.28;;;;;;;;;;4908789;29;20122;-85